EST,Max TemperatureF,Mean TemperatureF,Min TemperatureF,Max Dew PointF,MeanDew PointF,Min DewpointF,Max Humidity, Mean Humidity, Min Humidity, Max Sea Level PressureIn, Mean Sea Level PressureIn, Min Sea Level PressureIn, Max VisibilityMiles, Mean VisibilityMiles, Min VisibilityMiles, Max Wind SpeedMPH, Mean Wind SpeedMPH, Max Gust SpeedMPH,PrecipitationIn, CloudCover, Events, WindDirDegrees
2012-11-1,57,54,51,47,45,42,80,72,60,29.60,29.57,29.55,10,10,10,22,10,28,0.00,7,,259
2012-11-2,53,50,48,47,42,36,87,74,61,29.60,29.57,29.54,10,10,10,14,7,21,0.01,7,Rain,297
2012-11-3,52,48,45,39,36,32,74,65,56,29.79,29.70,29.61,10,10,10,17,11,25,0.00,2,,308
2012-11-4,51,45,39,41,37,32,89,70,60,29.91,29.86,29.79,10,10,10,14,10,21,0.00,3,Rain,313
2012-11-5,46,42,39,39,35,26,89,74,55,30.09,29.95,29.90,10,10,5,22,14,28,0.07,8,Rain,344
2012-11-6,44,38,32,32,28,25,82,65,53,30.21,30.16,30.10,10,10,10,13,8,18,0.00,4,,12
2012-11-7,48,45,42,45,40,32,96,84,63,30.06,29.67,29.43,10,5,2,48,30,68,1.30,8,Rain,37
2012-11-8,55,50,44,54,48,42,100,93,86,29.63,29.36,29.17,10,5,1,46,37,68,1.32,8,Rain,5
2012-11-9,50,46,41,41,35,28,89,69,48,30.10,29.89,29.65,10,10,9,30,21,40,0.00,4,Rain,322
2012-11-10,51,45,37,39,36,31,93,72,54,30.47,30.28,30.12,10,10,10,16,9,23,0.00,0,,339
2012-11-11,57,49,41,52,47,36,96,85,72,30.54,30.51,30.47,10,9,6,12,8,,0.00,3,,162
2012-11-12,62,57,52,57,54,51,100,92,78,30.53,30.45,30.31,10,9,4,13,7,,0.00,1,,173
2012-11-13,63,54,45,59,52,41,100,94,86,30.34,30.25,30.19,10,7,2,29,16,34,0.32,7,Rain,309
2012-11-14,46,45,44,45,39,34,96,79,65,30.43,30.39,30.35,10,9,3,25,20,33,0.08,8,Rain,16
2012-11-15,48,46,44,43,40,36,96,82,68,30.35,30.29,30.25,10,9,4,22,18,29,0.00,8,Rain,12
2012-11-16,48,45,42,39,37,34,82,73,66,30.38,30.28,30.22,10,10,10,15,13,,0.00,6,,4
2012-11-17,50,44,37,38,35,30,82,72,61,30.64,30.53,30.37,10,10,10,20,13,25,0.00,4,,25
2012-11-18,48,42,37,40,35,30,81,70,58,30.67,30.62,30.57,10,10,10,16,9,24,0.00,3,,48
2012-11-19,53,48,44,45,44,40,89,83,74,30.55,30.38,30.22,10,10,10,20,13,26,0.00,3,,38
2012-11-20,51,48,44,46,40,37,87,76,66,30.19,30.13,30.09,10,10,10,16,13,22,0.00,6,,33
2012-11-21,54,48,42,46,42,37,93,78,62,30.21,30.15,30.10,10,10,10,20,10,25,0.00,4,,38
2012-11-22,53,46,39,44,42,39,100,83,67,30.24,30.19,30.12,10,10,5,18,10,,0.00,1,,37
2012-11-23,52,46,39,48,44,39,100,90,80,30.10,29.96,29.69,10,7,0,9,5,,0.00,2,Fog,124
2012-11-24,50,43,36,49,35,15,100,72,41,29.67,29.60,29.54,10,8,0,23,8,36,0.00,5,Fog,268
2012-11-25,41,38,34,24,21,17,55,52,48,29.90,29.80,29.68,10,10,10,26,19,36,0.00,2,,282
2012-11-26,46,41,36,30,26,23,70,56,42,30.25,30.06,29.90,10,10,10,20,12,28,0.00,1,,287
2012-11-27,44,38,33,39,33,25,97,79,49,30.33,30.24,30.14,10,9,5,15,6,20,0.40,6,Rain,39
2012-11-28,44,40,35,39,35,25,97,82,64,30.17,30.10,30.05,10,10,5,24,15,32,0.10,6,Rain,347
2012-11-29,44,38,34,35,29,24,79,65,51,30.29,30.23,30.17,10,10,10,18,12,26,0.00,0,,277
2012-11-30,44,40,35,35,29,25,77,68,57,30.52,30.42,30.25,10,10,10,21,14,26,0.00,5,,16